Musko, Sweden

05:46 AM CET on Januari 22, 2019 (GMT +0100)
Långgarn 99 | | Change Station

Elev 56 ft 59.03 °N, 18.07 °E | Updated 41 seconds ago

Molnigt
Molnigt
31.8 °F
Feels Like 32 °F
N
1.6
Vind Växlande Vind from Sydlig
Gusts 2.2 miles/tim

Idag
High -- | Low -- °F
--% Chance of Precip.
Yesterday
High -- | Low -- °F
Precip. -- tum
Lufttryck 29.92 tum
Sikt 6.2 miles
Molnigt Mestadels molnigt 3700 ft
Vindavkylning 32 °F
Daggpunkt 29 °F
Luftfuktighet 90%
Rainfall 0.00 tum
Snow Depth Not available.
8:16 AM 3:41 PM
Fullmåne, 99% visible
METAR ESSA 220420Z 13004KT 9999 BKN037 M04/M06 Q1013 R01L/71//64 R08/71//68 R01R/72//68 NOSIG
Lufttryck 29.92 tum
Sikt 6.2 miles
Molnigt Mestadels molnigt 3700 ft
Vindavkylning 32 °F
Daggpunkt 29 °F
Luftfuktighet 90%
Rainfall 0.00 tum
Snow Depth Not available.
8:16 AM 3:41 PM
Fullmåne, 99% visible
METAR ESSA 220420Z 13004KT 9999 BKN037 M04/M06 Q1013 R01L/71//64 R08/71//68 R01R/72//68 NOSIG

Get Severe Weather Alerts

Thanks for signing up!

Be on the lookout for a verification email in your inbox.

You'll start receiving the daily forecast at 6 AM.

×

10-Day Weather Forecast

×

Almanac

Astronomi

Jan. 22, 2019 Rise Set
Actual Time
Civil Twilight
Nautical Twilight
Astronomical Twilight
Månen
Length Of Visible Light
Dagens längd
Tomorrow will be .
, % of the Moon is Illuminated

Today's Extremes

Country Highs Country Lows

Community

WunderPhotos

Category 6

Welcome to Category 6. This is the collective home for Weather Underground's featured writeups by Dr. Jeff Masters (right), Bob Henson (left), Chris Burt, and other regular contributors.

Nearby

Air Quality

  Air Quality AQ Index Pollutant
Not available.

Snödjup

Station Depth Elevation

Earthquake Activity

Stad Distance Mag. Time & Date
Minimum magnitude displayed is 2.5.

Coastal Water Temperatures

Plats Temperatur

Stations

Nearby Weather Stations

Station Location Temp Vindavkylning Daggpunkt Luftfuktighet Vind Precip. Elev Uppdaterad Type